Time;durP1;ratioP1;P1;durP2;ratioP2;P2;SDS_P1;SDS_P2;PMS_P1;PMS_P2;Temp;Humidity;BMP_temperature;BMP_pressure;BME280_temperature;BME280_humidity;BME280_pressure;Samples;Min_cycle;Max_cycle;Signal;HPM_P1;HPM_P2
2022/03/17 00:00:09;;;;;;;18.50;14.50;;;13.10;99.90;;;;;;5041690;28;20203;-73
2022/03/17 00:02:35;;;;;;;16.77;14.50;;;13.00;99.90;;;;;;5058642;28;20287;-73
2022/03/17 00:05:02;;;;;;;16.13;13.80;;;12.90;99.90;;;;;;5058377;28;20417;-73
2022/03/17 00:07:30;;;;;;;22.27;15.57;;;13.00;99.90;;;;;;5059757;28;20929;-71
2022/03/17 00:09:56;;;;;;;17.60;15.10;;;13.10;99.90;;;;;;5055401;28;20920;-73
2022/03/17 00:12:21;;;;;;;18.87;15.10;;;13.10;99.90;;;;;;5053440;28;20473;-73
2022/03/17 00:14:47;;;;;;;19.13;14.70;;;13.00;99.90;;;;;;5058970;28;20438;-74
2022/03/17 00:17:13;;;;;;;20.17;15.57;;;13.00;99.90;;;;;;5059525;28;20756;-73
2022/03/17 00:19:39;;;;;;;18.87;15.33;;;12.80;99.90;;;;;;5055941;28;20684;-74
2022/03/17 00:22:09;;;;;;;18.70;15.27;;;12.60;99.90;;;;;;5056642;28;20509;-74
2022/03/17 00:24:38;;;;;;;19.50;14.87;;;12.70;99.90;;;;;;5052398;28;20172;-73
2022/03/17 00:27:11;;;;;;;21.37;16.10;;;12.60;99.90;;;;;;5054752;28;20538;-75
2022/03/17 00:29:37;;;;;;;20.87;15.67;;;12.60;99.90;;;;;;5038487;28;20477;-74
2022/03/17 00:32:04;;;;;;;17.80;14.20;;;12.70;99.90;;;;;;5057466;28;20453;-74
2022/03/17 00:34:30;;;;;;;19.77;15.93;;;12.80;99.90;;;;;;5037831;28;20421;-73
2022/03/17 00:36:56;;;;;;;19.00;16.87;;;12.70;99.90;;;;;;5057991;28;20427;-74
2022/03/17 00:39:21;;;;;;;23.13;16.07;;;12.70;99.90;;;;;;5055009;28;20621;-74
2022/03/17 00:41:47;;;;;;;19.30;16.30;;;12.70;99.90;;;;;;5056699;28;20164;-77
2022/03/17 00:44:13;;;;;;;17.60;14.70;;;12.70;99.90;;;;;;5056443;28;20175;-72
2022/03/17 00:46:39;;;;;;;19.37;15.00;;;12.70;99.90;;;;;;5058556;28;20254;-75
2022/03/17 00:49:05;;;;;;;20.30;16.00;;;12.90;99.90;;;;;;5056220;28;20300;-73
2022/03/17 00:51:31;;;;;;;17.30;14.60;;;12.90;99.90;;;;;;5056774;28;20431;-74
2022/03/17 00:53:57;;;;;;;20.57;15.33;;;13.00;99.90;;;;;;5056249;28;20458;-75
2022/03/17 00:56:22;;;;;;;21.33;15.40;;;13.10;99.90;;;;;;5055015;28;20767;-73
2022/03/17 00:58:48;;;;;;;23.73;17.87;;;13.00;99.90;;;;;;5039281;28;20733;-74
2022/03/17 01:01:16;;;;;;;17.30;15.20;;;13.00;99.90;;;;;;5056485;28;20175;-75
2022/03/17 01:03:43;;;;;;;22.43;17.47;;;13.00;99.90;;;;;;5057758;28;20437;-74
2022/03/17 01:06:10;;;;;;;20.40;16.00;;;13.20;99.90;;;;;;5054992;28;20463;-73
2022/03/17 01:08:36;;;;;;;19.20;15.47;;;13.10;99.90;;;;;;5061125;28;20476;-75
2022/03/17 01:11:02;;;;;;;20.10;16.20;;;13.10;99.90;;;;;;5061880;28;21144;-73
2022/03/17 01:13:28;;;;;;;18.33;16.23;;;13.00;99.90;;;;;;5059228;28;21009;-74
2022/03/17 01:15:53;;;;;;;19.23;15.90;;;12.90;99.90;;;;;;5059734;28;20434;-74
2022/03/17 01:18:21;;;;;;;20.73;16.20;;;12.80;99.90;;;;;;5058571;28;20826;-73
2022/03/17 01:20:47;;;;;;;19.23;16.40;;;12.90;99.90;;;;;;5054332;28;20180;-74
2022/03/17 01:23:13;;;;;;;20.57;16.50;;;12.80;99.90;;;;;;5056118;28;20486;-73
2022/03/17 01:25:39;;;;;;;21.03;15.67;;;12.90;99.90;;;;;;5055685;28;20452;-75
2022/03/17 01:28:04;;;;;;;19.10;16.13;;;12.80;99.90;;;;;;5058683;28;20236;-74
2022/03/17 01:30:30;;;;;;;17.90;15.37;;;12.80;99.90;;;;;;5056169;28;20187;-73
2022/03/17 01:32:56;;;;;;;22.40;16.37;;;12.60;99.90;;;;;;5055851;28;20204;-74
2022/03/17 01:35:21;;;;;;;20.83;16.30;;;12.50;99.90;;;;;;5057204;28;20186;-74
2022/03/17 01:37:47;;;;;;;20.93;16.23;;;12.30;99.90;;;;;;5042209;28;20176;-74
2022/03/17 01:40:12;;;;;;;20.40;16.70;;;12.30;99.90;;;;;;5054604;28;20179;-74
2022/03/17 01:42:39;;;;;;;20.20;17.03;;;12.40;99.90;;;;;;5055080;28;20271;-73
2022/03/17 01:45:06;;;;;;;25.40;18.53;;;12.30;99.90;;;;;;5056686;28;20273;-74
2022/03/17 01:47:33;;;;;;;21.07;16.23;;;12.30;99.90;;;;;;5058389;28;20429;-72
2022/03/17 01:50:14;;;;;;;19.70;16.60;;;12.20;99.90;;;;;;5059590;28;20502;-72
2022/03/17 01:52:43;;;;;;;24.30;17.00;;;12.20;99.90;;;;;;5055728;28;20445;-73
2022/03/17 01:55:10;;;;;;;18.90;16.47;;;12.40;99.90;;;;;;5057190;28;20907;-73
2022/03/17 01:57:39;;;;;;;19.40;16.23;;;12.50;99.90;;;;;;5056825;28;20426;-75
2022/03/17 02:00:07;;;;;;;24.30;16.50;;;12.30;99.90;;;;;;5043090;28;20667;-74
2022/03/17 02:02:33;;;;;;;20.83;16.20;;;12.20;99.90;;;;;;5055221;28;20821;-73
2022/03/17 02:04:59;;;;;;;22.03;16.70;;;12.10;99.90;;;;;;5055993;28;20421;-76
2022/03/17 02:07:24;;;;;;;18.77;15.70;;;11.80;99.90;;;;;;5057211;28;20194;-74
2022/03/17 02:09:50;;;;;;;20.80;16.63;;;11.60;99.90;;;;;;5040671;28;20427;-72
2022/03/17 02:15:05;;;;;;;20.30;14.80;;;11.70;99.90;;;;;;5056448;28;20190;-74
2022/03/17 02:17:32;;;;;;;19.10;14.73;;;12.00;99.90;;;;;;5054656;28;20817;-73
2022/03/17 02:19:59;;;;;;;17.80;14.87;;;12.20;99.90;;;;;;5056456;28;20512;-72
2022/03/17 02:22:25;;;;;;;21.80;15.90;;;11.90;99.90;;;;;;5057532;28;20460;-75
2022/03/17 02:27:47;;;;;;;20.90;14.70;;;11.70;99.90;;;;;;5056927;28;20563;-73
2022/03/17 02:30:16;;;;;;;22.53;16.30;;;11.40;99.90;;;;;;5056505;28;20421;-74
2022/03/17 02:32:42;;;;;;;25.97;16.27;;;11.30;99.90;;;;;;5058001;28;20514;-74
2022/03/17 02:35:10;;;;;;;19.27;15.37;;;11.30;99.90;;;;;;5056973;28;20433;-74
2022/03/17 02:37:36;;;;;;;25.87;18.50;;;11.30;99.90;;;;;;5057199;28;20442;-73
2022/03/17 02:40:05;;;;;;;28.63;19.53;;;11.50;99.90;;;;;;5042461;28;20610;-74
2022/03/17 02:42:31;;;;;;;28.97;20.97;;;11.30;99.90;;;;;;5054790;28;20528;-73
2022/03/17 02:44:59;;;;;;;35.03;22.10;;;11.40;99.90;;;;;;5056140;28;20429;-74
2022/03/17 02:47:26;;;;;;;33.43;22.13;;;11.60;99.90;;;;;;5054317;28;20581;-74
2022/03/17 02:49:55;;;;;;;33.43;22.50;;;11.80;99.90;;;;;;5055106;28;20813;-76
2022/03/17 02:52:22;;;;;;;35.27;23.80;;;11.70;99.90;;;;;;5056502;28;20461;-74
2022/03/17 02:54:48;;;;;;;37.10;25.50;;;11.60;99.90;;;;;;5053303;28;20457;-73
2022/03/17 02:57:13;;;;;;;37.70;23.53;;;11.50;99.90;;;;;;5057342;28;20429;-75
2022/03/17 02:59:39;;;;;;;35.83;23.90;;;11.50;99.90;;;;;;5053042;28;20473;-74
2022/03/17 03:02:05;;;;;;;31.70;21.17;;;11.60;99.90;;;;;;5057599;28;20222;-73
2022/03/17 03:04:34;;;;;;;33.77;23.27;;;11.50;99.90;;;;;;5056555;28;20186;-74
2022/03/17 03:07:06;;;;;;;39.17;24.20;;;11.50;99.90;;;;;;5041079;28;20176;-75
2022/03/17 03:09:32;;;;;;;33.03;21.73;;;11.30;99.90;;;;;;5039333;28;20425;-75
2022/03/17 03:11:58;;;;;;;37.27;24.40;;;11.20;99.90;;;;;;5055075;28;20441;-76
2022/03/17 03:14:24;;;;;;;37.23;23.50;;;11.20;99.90;;;;;;5051814;28;20936;-75
2022/03/17 03:16:50;;;;;;;36.17;24.50;;;11.40;99.90;;;;;;5058138;28;20256;-75
2022/03/17 03:19:17;;;;;;;35.47;24.20;;;11.20;99.90;;;;;;5054267;28;20969;-75
2022/03/17 03:21:45;;;;;;;31.20;22.17;;;11.20;99.90;;;;;;5056459;28;20433;-74
2022/03/17 03:24:12;;;;;;;36.40;23.80;;;11.10;99.90;;;;;;5050838;28;20586;-74
2022/03/17 03:26:40;;;;;;;35.60;23.90;;;10.80;99.90;;;;;;5056656;28;20433;-74
2022/03/17 03:29:16;;;;;;;35.57;23.40;;;10.90;99.90;;;;;;5051412;28;20435;-73
2022/03/17 03:31:41;;;;;;;41.03;26.40;;;10.90;99.90;;;;;;5056075;28;20441;-75
2022/03/17 03:34:08;;;;;;;35.97;23.87;;;11.20;99.90;;;;;;5055204;28;21319;-74
2022/03/17 03:39:18;;;;;;;32.63;22.80;;;10.90;99.90;;;;;;5054203;28;20464;-75
2022/03/17 03:41:43;;;;;;;35.67;24.20;;;10.90;99.90;;;;;;5049419;28;20426;-73
2022/03/17 03:44:14;;;;;;;33.00;22.87;;;11.00;99.90;;;;;;5055285;28;20244;-74
2022/03/17 03:46:40;;;;;;;36.43;23.80;;;10.90;99.90;;;;;;5036511;28;20191;-74
2022/03/17 03:49:06;;;;;;;37.07;24.50;;;10.60;99.90;;;;;;5036179;28;20434;-74
2022/03/17 03:51:31;;;;;;;36.70;24.97;;;10.90;99.90;;;;;;5055795;28;20436;-73
2022/03/17 03:54:16;;;;;;;43.10;26.83;;;10.70;99.90;;;;;;5055070;28;20218;-74
2022/03/17 03:56:46;;;;;;;44.73;27.07;;;10.80;99.90;;;;;;5053618;28;20179;-73
2022/03/17 03:59:23;;;;;;;48.97;27.03;;;10.80;99.90;;;;;;5054083;28;21235;-74
2022/03/17 04:01:50;;;;;;;40.87;26.27;;;10.70;99.90;;;;;;5053042;28;20441;-75
2022/03/17 04:04:20;;;;;;;39.43;26.57;;;10.70;99.90;;;;;;5055744;28;20445;-74
2022/03/17 04:06:50;;;;;;;43.13;26.83;;;10.50;99.90;;;;;;5052721;28;20453;-74
2022/03/17 04:09:17;;;;;;;39.53;26.03;;;10.80;99.90;;;;;;5052312;28;20950;-76
2022/03/17 04:11:43;;;;;;;40.70;26.10;;;10.80;99.90;;;;;;5054757;28;20445;-74
2022/03/17 04:14:10;;;;;;;44.60;26.87;;;10.80;99.90;;;;;;5056246;28;20448;-76
2022/03/17 04:16:35;;;;;;;37.70;25.77;;;10.80;99.90;;;;;;5055185;28;20591;-76
2022/03/17 04:19:01;;;;;;;39.50;27.43;;;10.70;99.90;;;;;;5055925;28;20544;-76
2022/03/17 04:21:28;;;;;;;44.00;28.17;;;10.70;99.90;;;;;;5058242;28;20713;-75
2022/03/17 04:23:53;;;;;;;40.53;29.37;;;10.60;99.90;;;;;;5054689;28;20479;-75
2022/03/17 04:26:19;;;;;;;53.00;29.53;;;10.60;99.90;;;;;;5044247;28;20464;-76
2022/03/17 04:28:45;;;;;;;43.33;27.30;;;10.60;99.90;;;;;;5036177;28;20700;-75
2022/03/17 04:31:11;;;;;;;43.20;27.77;;;10.60;99.90;;;;;;5056830;28;20480;-74
2022/03/17 04:33:37;;;;;;;47.10;29.77;;;10.60;99.90;;;;;;5043813;28;20742;-75
2022/03/17 04:36:04;;;;;;;46.30;29.57;;;10.60;99.90;;;;;;5054584;28;20490;-75
2022/03/17 04:38:29;;;;;;;45.00;30.13;;;10.60;99.90;;;;;;5040669;28;20203;-75
2022/03/17 04:40:55;;;;;;;46.87;29.57;;;10.50;99.90;;;;;;5055441;28;21679;-75
2022/03/17 04:43:20;;;;;;;41.77;27.87;;;10.50;99.90;;;;;;5057428;28;20195;-75
2022/03/17 04:45:46;;;;;;;42.00;28.03;;;10.50;99.90;;;;;;5057766;28;20825;-75
2022/03/17 04:48:13;;;;;;;43.17;28.33;;;10.80;99.90;;;;;;5057830;28;20220;-74
2022/03/17 04:50:39;;;;;;;48.90;29.40;;;10.70;99.90;;;;;;5057404;28;20489;-75
2022/03/17 04:55:49;;;;;;;45.53;29.50;;;10.70;99.90;;;;;;5056549;28;20223;-76
2022/03/17 04:58:15;;;;;;;49.93;27.60;;;10.50;99.90;;;;;;5056289;28;20921;-74
2022/03/17 05:00:43;;;;;;;45.47;28.10;;;10.60;99.90;;;;;;5059692;28;20560;-74
2022/03/17 05:03:10;;;;;;;47.00;30.47;;;10.70;99.90;;;;;;5055335;28;20284;-75
2022/03/17 05:05:36;;;;;;;48.50;31.37;;;10.80;99.90;;;;;;5057119;28;20988;-76
2022/03/17 05:08:02;;;;;;;48.90;30.87;;;10.80;99.90;;;;;;5056280;28;20520;-74
2022/03/17 05:10:28;;;;;;;44.90;29.13;;;10.60;99.90;;;;;;5056976;28;20546;-73
2022/03/17 05:12:54;;;;;;;48.13;30.77;;;10.50;99.90;;;;;;5053027;28;20202;-73
2022/03/17 05:15:20;;;;;;;45.57;30.50;;;10.50;99.90;;;;;;5055500;28;20472;-74
2022/03/17 05:17:47;;;;;;;46.10;29.73;;;10.70;99.90;;;;;;5058438;28;20470;-74
2022/03/17 05:20:14;;;;;;;47.10;29.60;;;10.60;99.90;;;;;;5056561;28;20433;-77
2022/03/17 05:22:40;;;;;;;46.47;30.50;;;10.80;99.90;;;;;;5037579;28;20472;-72
2022/03/17 05:25:08;;;;;;;50.70;31.40;;;10.80;99.90;;;;;;5057697;28;20878;-74
2022/03/17 05:27:42;;;;;;;50.77;32.97;;;10.60;99.90;;;;;;5056143;28;20466;-75
2022/03/17 05:30:15;;;;;;;49.37;32.63;;;10.70;99.90;;;;;;5038709;28;20452;-75
2022/03/17 05:32:42;;;;;;;45.67;30.67;;;10.50;99.90;;;;;;5057873;28;20449;-76
2022/03/17 05:35:09;;;;;;;49.77;31.53;;;10.80;99.90;;;;;;5055645;28;20459;-76
2022/03/17 05:37:35;;;;;;;47.90;30.10;;;10.80;99.90;;;;;;5057929;28;20946;-74
2022/03/17 05:40:06;;;;;;;51.33;31.17;;;10.80;99.90;;;;;;5055146;28;20534;-76
2022/03/17 05:42:33;;;;;;;46.97;28.90;;;10.80;99.90;;;;;;5040094;28;20472;-74
2022/03/17 05:44:58;;;;;;;51.77;32.80;;;10.70;99.90;;;;;;5054760;28;21044;-74
2022/03/17 05:47:24;;;;;;;48.77;31.50;;;10.60;99.90;;;;;;5056346;28;20441;-75
2022/03/17 05:49:50;;;;;;;47.27;31.80;;;10.60;99.90;;;;;;5058020;28;20211;-75
2022/03/17 05:52:15;;;;;;;48.80;31.83;;;10.70;99.90;;;;;;5038257;28;20199;-73
2022/03/17 05:54:41;;;;;;;45.10;28.90;;;10.90;99.90;;;;;;5056933;28;20230;-74
2022/03/17 05:57:11;;;;;;;46.63;29.23;;;11.20;99.90;;;;;;5060082;28;20189;-74
2022/03/17 05:59:39;;;;;;;49.00;29.83;;;11.10;99.90;;;;;;5053292;28;20620;-73
2022/03/17 06:02:05;;;;;;;48.60;28.70;;;11.20;99.90;;;;;;5053189;28;21048;-73
2022/03/17 06:04:31;;;;;;;44.27;30.40;;;11.20;99.90;;;;;;5039123;28;20437;-73
2022/03/17 06:06:57;;;;;;;49.83;29.30;;;11.10;99.90;;;;;;5055021;28;20507;-74
2022/03/17 06:09:22;;;;;;;47.57;30.03;;;11.00;99.90;;;;;;5055589;28;20190;-73
2022/03/17 06:11:48;;;;;;;47.23;30.87;;;10.90;99.90;;;;;;5053572;28;20188;-75
2022/03/17 06:14:14;;;;;;;53.77;33.53;;;10.70;99.90;;;;;;5053128;28;20682;-75
2022/03/17 06:16:39;;;;;;;47.90;30.97;;;10.70;99.90;;;;;;5056026;28;20187;-74
2022/03/17 06:19:05;;;;;;;50.23;29.60;;;10.90;99.90;;;;;;5056510;28;20257;-75
2022/03/17 06:21:30;;;;;;;49.43;30.70;;;10.90;99.90;;;;;;5055542;28;20192;-75
2022/03/17 06:23:56;;;;;;;47.63;31.07;;;10.80;99.90;;;;;;5038521;28;20709;-74
2022/03/17 06:26:22;;;;;;;51.00;32.30;;;10.80;99.90;;;;;;5054483;28;20290;-74
2022/03/17 06:28:47;;;;;;;45.17;30.43;;;10.90;99.90;;;;;;5057045;28;20901;-75
2022/03/17 06:31:13;;;;;;;46.00;30.80;;;10.80;99.90;;;;;;5036982;28;20272;-75
2022/03/17 06:33:44;;;;;;;60.33;33.17;;;10.70;99.90;;;;;;5056803;28;20202;-75
2022/03/17 06:36:10;;;;;;;43.60;30.60;;;10.70;99.90;;;;;;5055978;28;20548;-75
2022/03/17 06:38:35;;;;;;;50.03;32.07;;;10.60;99.90;;;;;;5040363;28;20466;-77
2022/03/17 06:41:01;;;;;;;45.57;31.33;;;10.60;99.90;;;;;;5052556;28;20188;-73
2022/03/17 06:43:26;;;;;;;50.10;30.47;;;10.80;99.90;;;;;;5056952;28;20225;-74
2022/03/17 06:45:52;;;;;;;44.63;28.20;;;10.90;99.90;;;;;;5052258;28;20183;-74
2022/03/17 06:48:17;;;;;;;43.90;29.50;;;11.10;99.90;;;;;;5052432;28;20187;-75
2022/03/17 06:50:43;;;;;;;47.57;30.20;;;10.90;99.90;;;;;;5055495;28;20187;-75
2022/03/17 06:53:09;;;;;;;46.60;31.70;;;10.70;99.90;;;;;;5055778;28;20207;-74
2022/03/17 06:55:34;;;;;;;44.40;30.77;;;10.80;99.90;;;;;;5054482;28;20198;-74
2022/03/17 06:58:01;;;;;;;47.13;30.13;;;10.80;99.90;;;;;;5054979;28;20290;-75
2022/03/17 07:00:27;;;;;;;44.33;29.80;;;10.80;99.90;;;;;;5039009;28;20560;-76
2022/03/17 07:02:52;;;;;;;43.30;27.50;;;10.70;99.90;;;;;;5034803;28;20461;-74
2022/03/17 07:05:18;;;;;;;42.87;29.63;;;10.90;99.90;;;;;;5056566;28;20748;-75
2022/03/17 07:07:44;;;;;;;45.33;30.33;;;11.00;99.90;;;;;;5055978;28;20309;-74
2022/03/17 07:10:11;;;;;;;53.10;31.67;;;10.90;99.90;;;;;;5054080;28;20396;-74
2022/03/17 07:12:38;;;;;;;47.93;30.90;;;10.80;99.90;;;;;;5049807;28;20974;-76
2022/03/17 07:15:07;;;;;;;41.13;29.40;;;10.80;99.90;;;;;;5053234;28;20441;-75
2022/03/17 07:17:39;;;;;;;55.63;31.50;;;10.80;99.90;;;;;;5055630;28;20519;-74
2022/03/17 07:20:09;;;;;;;49.20;28.73;;;10.80;99.90;;;;;;5054754;28;20476;-74
2022/03/17 07:22:35;;;;;;;47.80;32.03;;;10.90;99.90;;;;;;5053687;28;20532;-74
2022/03/17 07:25:01;;;;;;;47.50;31.00;;;10.80;99.90;;;;;;5058434;28;20464;-75
2022/03/17 07:27:27;;;;;;;44.63;30.60;;;10.60;99.90;;;;;;5057402;28;20183;-73
2022/03/17 07:29:53;;;;;;;46.17;32.93;;;10.70;99.90;;;;;;5051859;28;20445;-75
2022/03/17 07:32:19;;;;;;;49.27;32.10;;;10.60;99.90;;;;;;5042414;28;20782;-74
2022/03/17 07:34:46;;;;;;;46.03;31.70;;;10.60;99.90;;;;;;5055998;28;20195;-75
2022/03/17 07:37:11;;;;;;;49.30;33.80;;;10.60;99.90;;;;;;5057722;28;20471;-75
2022/03/17 07:39:37;;;;;;;48.20;31.90;;;10.60;99.90;;;;;;5039599;28;20469;-74
2022/03/17 07:42:04;;;;;;;51.77;33.83;;;10.50;99.90;;;;;;5053245;28;20677;-72
2022/03/17 07:44:30;;;;;;;52.53;31.03;;;10.60;99.90;;;;;;5051144;28;20180;-72
2022/03/17 07:46:56;;;;;;;47.03;31.20;;;10.80;99.90;;;;;;5054176;28;20450;-72
2022/03/17 07:49:22;;;;;;;47.67;31.30;;;10.90;99.90;;;;;;5055501;28;20769;-72
2022/03/17 07:51:47;;;;;;;47.67;32.07;;;11.10;99.90;;;;;;5055270;28;20205;-71
2022/03/17 07:54:13;;;;;;;46.63;30.90;;;11.10;99.90;;;;;;5057864;28;20279;-70
2022/03/17 07:56:40;;;;;;;45.30;30.70;;;11.10;99.90;;;;;;5058543;28;20249;-72
2022/03/17 07:59:07;;;;;;;45.20;31.00;;;11.20;99.90;;;;;;5056399;28;20203;-70
2022/03/17 08:01:33;;;;;;;49.63;31.03;;;11.10;99.90;;;;;;5060842;28;20834;-72
2022/03/17 08:03:59;;;;;;;48.53;32.27;;;11.10;99.90;;;;;;5044771;28;20458;-73
2022/03/17 08:06:25;;;;;;;50.47;33.23;;;11.10;99.90;;;;;;5059856;28;20428;-71
2022/03/17 08:08:51;;;;;;;50.57;30.90;;;11.10;99.90;;;;;;5058905;28;20720;-72
2022/03/17 08:11:17;;;;;;;49.00;31.60;;;11.10;99.90;;;;;;5059858;28;20433;-70
2022/03/17 08:13:44;;;;;;;48.93;33.03;;;11.10;99.90;;;;;;5040379;28;20202;-74
2022/03/17 08:16:10;;;;;;;48.67;31.93;;;11.10;99.90;;;;;;5061403;28;20491;-72
2022/03/17 08:18:36;;;;;;;50.20;32.37;;;11.00;99.90;;;;;;5059349;28;22470;-72
2022/03/17 08:21:02;;;;;;;40.77;30.27;;;11.10;99.90;;;;;;5060717;28;20514;-72
2022/03/17 08:23:28;;;;;;;45.07;30.60;;;11.10;99.90;;;;;;5054913;28;20204;-71
2022/03/17 08:25:54;;;;;;;59.30;32.13;;;11.10;99.90;;;;;;5059041;28;20180;-71
2022/03/17 08:28:20;;;;;;;58.37;33.60;;;11.10;99.90;;;;;;5059530;28;20431;-73
2022/03/17 08:30:47;;;;;;;46.53;33.10;;;11.10;99.90;;;;;;5061237;28;20183;-70
2022/03/17 08:33:14;;;;;;;47.57;33.60;;;11.20;99.90;;;;;;5061196;28;20434;-71
2022/03/17 08:35:40;;;;;;;56.20;33.87;;;11.00;99.90;;;;;;5061116;28;20410;-72
2022/03/17 08:38:06;;;;;;;47.30;33.20;;;11.10;99.90;;;;;;5058085;28;20421;-71
2022/03/17 08:40:32;;;;;;;45.37;30.53;;;11.00;99.90;;;;;;5057736;28;20429;-71
2022/03/17 08:42:57;;;;;;;52.77;29.13;;;11.20;99.90;;;;;;5058162;28;20514;-73
2022/03/17 08:50:52;;;;;;;46.07;31.60;;;11.60;99.90;;;;;;5056522;28;20470;-72
2022/03/17 08:53:17;;;;;;;54.37;31.40;;;11.60;99.90;;;;;;5056382;28;20465;-72
2022/03/17 08:55:44;;;;;;;45.23;31.10;;;11.50;99.90;;;;;;5060319;28;20475;-72
2022/03/17 08:58:10;;;;;;;42.90;29.87;;;11.60;99.90;;;;;;5056967;28;20175;-71
2022/03/17 09:00:36;;;;;;;45.77;31.53;;;11.70;99.90;;;;;;5055347;28;20460;-71
2022/03/17 09:03:06;;;;;;;44.57;31.90;;;11.70;99.90;;;;;;5058133;28;20535;-72
2022/03/17 09:05:33;;;;;;;46.30;32.90;;;11.90;99.90;;;;;;5058509;28;20228;-71
2022/03/17 09:07:59;;;;;;;44.03;31.10;;;12.10;99.90;;;;;;5059379;28;20449;-70
2022/03/17 09:10:26;;;;;;;46.27;33.47;;;11.90;99.90;;;;;;5060614;28;20497;-71
2022/03/17 09:12:57;;;;;;;41.50;31.50;;;11.70;99.90;;;;;;5056750;28;20442;-72
2022/03/17 09:15:24;;;;;;;49.30;30.60;;;11.50;99.90;;;;;;5056984;28;21733;-71
2022/03/17 09:17:50;;;;;;;47.03;30.77;;;11.70;99.90;;;;;;5061695;28;20430;-73
2022/03/17 09:20:16;;;;;;;44.27;31.60;;;11.80;99.90;;;;;;5045393;28;20905;-73
2022/03/17 09:22:43;;;;;;;47.23;32.13;;;12.00;99.90;;;;;;5053968;28;20457;-72
2022/03/17 09:25:10;;;;;;;46.07;31.40;;;12.00;99.90;;;;;;5055774;28;20434;-72
2022/03/17 09:27:36;;;;;;;46.60;32.30;;;12.00;99.90;;;;;;5059608;28;20483;-73
2022/03/17 09:30:02;;;;;;;47.50;31.27;;;12.00;99.90;;;;;;5025926;28;20434;-71
2022/03/17 09:32:28;;;;;;;47.57;30.97;;;12.00;99.90;;;;;;5053910;28;20207;-72
2022/03/17 09:34:53;;;;;;;44.30;31.53;;;11.90;99.90;;;;;;5057188;28;20441;-73
2022/03/17 09:37:19;;;;;;;48.17;32.50;;;11.70;99.90;;;;;;5060128;28;20183;-74
2022/03/17 09:39:47;;;;;;;45.00;33.57;;;11.80;99.90;;;;;;5059840;28;20218;-72
2022/03/17 09:42:16;;;;;;;48.50;34.07;;;11.80;99.90;;;;;;5056921;28;20218;-73
2022/03/17 09:44:44;;;;;;;46.57;33.20;;;11.80;99.90;;;;;;5039703;28;20800;-72
2022/03/17 09:47:11;;;;;;;48.77;31.20;;;11.60;99.90;;;;;;5042219;28;20430;-74
2022/03/17 09:49:42;;;;;;;46.13;32.30;;;11.60;99.90;;;;;;5057561;28;20594;-73
2022/03/17 09:52:13;;;;;;;48.67;31.63;;;11.80;99.90;;;;;;5059014;28;20465;-72
2022/03/17 09:54:40;;;;;;;46.47;30.70;;;11.80;99.90;;;;;;5054679;28;20450;-72
2022/03/17 09:57:07;;;;;;;48.33;33.37;;;12.00;99.90;;;;;;5057337;28;20438;-73
2022/03/17 09:59:32;;;;;;;42.17;30.53;;;11.90;99.90;;;;;;5060327;28;20556;-71
2022/03/17 10:01:59;;;;;;;42.53;32.60;;;12.00;99.90;;;;;;5057922;28;20578;-72
2022/03/17 10:04:25;;;;;;;41.30;32.53;;;11.90;99.90;;;;;;5056836;28;20694;-72
2022/03/17 10:06:50;;;;;;;40.43;29.90;;;12.20;99.90;;;;;;5055622;28;20513;-73
2022/03/17 10:09:17;;;;;;;44.03;31.83;;;12.20;99.90;;;;;;5055429;28;20554;-71
2022/03/17 10:11:43;;;;;;;45.60;32.07;;;12.30;99.90;;;;;;5057005;28;20194;-71
2022/03/17 10:14:09;;;;;;;41.77;32.10;;;12.20;99.90;;;;;;5057609;28;20444;-72
2022/03/17 10:16:36;;;;;;;41.13;29.90;;;12.10;99.90;;;;;;5061606;28;20183;-72
2022/03/17 10:19:09;;;;;;;38.30;30.90;;;12.10;99.90;;;;;;5041708;28;20298;-72
2022/03/17 10:21:37;;;;;;;38.37;29.57;;;12.10;99.90;;;;;;5051009;28;20449;-71
2022/03/17 10:24:07;;;;;;;40.47;30.63;;;12.10;99.90;;;;;;5059043;28;20520;-71
2022/03/17 10:26:37;;;;;;;43.30;29.90;;;12.30;99.90;;;;;;5057563;28;20936;-72
2022/03/17 10:29:05;;;;;;;38.20;30.13;;;12.50;99.90;;;;;;5054956;28;20435;-71
2022/03/17 10:31:32;;;;;;;44.27;33.23;;;12.60;99.90;;;;;;5054097;28;20436;-71
2022/03/17 10:33:57;;;;;;;40.97;30.73;;;12.80;99.90;;;;;;5043621;28;20453;-71
2022/03/17 10:36:23;;;;;;;40.87;30.83;;;12.80;99.90;;;;;;5055807;28;20445;-73
2022/03/17 10:38:49;;;;;;;41.77;29.33;;;12.80;99.90;;;;;;5055577;28;20204;-71
2022/03/17 10:41:16;;;;;;;47.13;33.87;;;12.70;99.90;;;;;;5053172;28;20253;-71
2022/03/17 10:43:43;;;;;;;38.53;29.50;;;12.50;99.90;;;;;;5054633;28;20510;-73
2022/03/17 10:46:22;;;;;;;44.30;29.80;;;12.60;99.90;;;;;;5057461;28;20858;-71
2022/03/17 10:49:01;;;;;;;44.00;30.10;;;12.50;99.90;;;;;;5054498;28;20436;-76
2022/03/17 10:51:31;;;;;;;37.07;28.97;;;12.80;99.90;;;;;;5057839;28;20826;-72
2022/03/17 10:54:06;;;;;;;36.97;27.70;;;12.90;99.90;;;;;;5055457;28;20445;-72
2022/03/17 10:56:42;;;;;;;38.97;28.30;;;13.00;99.90;;;;;;5053874;28;20905;-73
2022/03/17 10:59:08;;;;;;;39.40;28.23;;;13.10;99.90;;;;;;5053218;28;20462;-74
2022/03/17 11:01:35;;;;;;;33.73;26.60;;;13.20;99.90;;;;;;5055523;28;20474;-73
2022/03/17 11:04:02;;;;;;;36.57;26.80;;;13.20;99.90;;;;;;5042039;28;20452;-73
2022/03/17 11:06:28;;;;;;;36.27;27.57;;;13.30;99.90;;;;;;5053626;28;20435;-73
2022/03/17 11:08:55;;;;;;;37.70;26.37;;;13.50;99.90;;;;;;5058053;28;20442;-72
2022/03/17 11:11:20;;;;;;;30.90;25.97;;;13.60;99.90;;;;;;5045048;28;20175;-70
2022/03/17 11:13:47;;;;;;;39.67;27.80;;;13.80;99.90;;;;;;5055237;28;20468;-73
2022/03/17 11:16:14;;;;;;;35.90;26.73;;;13.70;99.90;;;;;;5043000;28;20175;-73
2022/03/17 11:18:43;;;;;;;37.00;26.33;;;13.90;99.90;;;;;;5036656;28;20974;-72
2022/03/17 11:21:25;;;;;;;40.00;30.20;;;13.90;99.90;;;;;;5057681;28;20414;-72
2022/03/17 11:24:05;;;;;;;35.43;27.80;;;14.00;99.90;;;;;;5063481;28;20548;-74
2022/03/17 11:26:39;;;;;;;34.90;25.67;;;14.00;99.90;;;;;;5053579;28;20483;-71
2022/03/17 11:29:08;;;;;;;36.67;27.83;;;14.00;99.90;;;;;;5055274;28;20494;-73
2022/03/17 11:32:05;;;;;;;36.43;26.20;;;14.00;99.90;;;;;;5061499;28;20445;-73
2022/03/17 11:34:48;;;;;;;39.63;25.43;;;14.20;99.90;;;;;;5060234;28;20496;-74
2022/03/17 11:37:19;;;;;;;46.73;29.10;;;14.20;99.90;;;;;;5057928;28;20484;-72
2022/03/17 11:40:03;;;;;;;36.50;27.00;;;14.20;99.90;;;;;;5059220;28;20977;-72
2022/03/17 11:42:40;;;;;;;37.10;26.93;;;14.00;99.90;;;;;;5040489;28;20448;-73
2022/03/17 11:45:14;;;;;;;40.57;29.07;;;14.10;99.90;;;;;;5062079;28;20433;-74
2022/03/17 11:48:02;;;;;;;40.23;29.77;;;14.20;99.90;;;;;;5060163;28;20413;-73
2022/03/17 11:50:34;;;;;;;34.30;27.47;;;14.10;99.90;;;;;;5056771;28;21195;-74
2022/03/17 11:53:04;;;;;;;37.10;27.70;;;14.10;99.90;;;;;;5058600;28;20445;-73
2022/03/17 11:55:43;;;;;;;37.27;29.17;;;14.20;99.90;;;;;;5046409;28;20450;-74
2022/03/17 11:58:24;;;;;;;40.13;29.93;;;14.10;99.90;;;;;;5058471;28;20433;-74
2022/03/17 12:00:53;;;;;;;42.60;30.53;;;13.90;99.90;;;;;;5058237;28;20442;-73
2022/03/17 12:03:29;;;;;;;42.27;29.33;;;13.70;99.90;;;;;;5057719;28;20451;-74
2022/03/17 12:06:15;;;;;;;40.10;29.97;;;13.80;99.90;;;;;;5059750;28;20452;-73
2022/03/17 12:08:58;;;;;;;41.63;29.67;;;14.00;99.90;;;;;;5057513;28;21230;-73
2022/03/17 12:11:26;;;;;;;41.73;31.27;;;14.00;99.90;;;;;;5058886;28;20498;-73
2022/03/17 12:14:11;;;;;;;39.47;29.90;;;14.10;99.90;;;;;;5059874;28;21056;-72
2022/03/17 12:16:40;;;;;;;37.17;28.57;;;14.00;99.90;;;;;;5056934;28;20441;-73
2022/03/17 12:19:05;;;;;;;42.30;31.60;;;14.10;99.90;;;;;;5060931;28;20464;-72
2022/03/17 12:22:02;;;;;;;41.07;29.73;;;14.10;99.90;;;;;;5058070;28;20497;-72
2022/03/17 12:24:39;;;;;;;41.27;29.87;;;14.10;99.90;;;;;;5055037;28;20176;-73
2022/03/17 12:27:30;;;;;;;41.93;28.93;;;14.10;99.90;;;;;;5059830;28;20421;-73
2022/03/17 12:30:02;;;;;;;36.17;26.47;;;14.00;99.90;;;;;;5057978;28;20492;-73
2022/03/17 12:32:40;;;;;;;35.80;27.50;;;14.00;99.90;;;;;;5044732;28;20511;-74
2022/03/17 12:35:09;;;;;;;35.27;27.43;;;14.00;99.90;;;;;;5056104;28;20464;-73
2022/03/17 12:37:35;;;;;;;37.33;27.20;;;14.00;99.90;;;;;;5060553;28;20414;-72
2022/03/17 12:40:04;;;;;;;35.93;26.87;;;14.00;99.90;;;;;;5057752;28;20460;-73
2022/03/17 12:42:32;;;;;;;36.63;28.27;;;14.10;99.90;;;;;;5058799;28;20441;-73
2022/03/17 12:45:04;;;;;;;37.87;28.23;;;14.10;99.90;;;;;;5057229;28;20445;-73
2022/03/17 12:47:34;;;;;;;34.60;27.37;;;14.10;99.90;;;;;;5061488;28;20926;-73